Time;durP1;ratioP1;P1;durP2;ratioP2;P2;SDS_P1;SDS_P2;PMS_P1;PMS_P2;Temp;Humidity;BMP_temperature;BMP_pressure;BME280_temperature;BME280_humidity;BME280_pressure;Samples;Min_cycle;Max_cycle;Signal;HPM_P1;HPM_P2
2024/04/12 00:01:45;;;;;;;0.00;0.00;;;20.80;48.80;;;;;;5400190;26;20846;-52
2024/04/12 00:04:20;;;;;;;0.00;0.00;;;20.80;48.80;;;;;;5435045;26;20258;-49
2024/04/12 00:06:52;;;;;;;0.05;0.05;;;20.80;48.80;;;;;;5436935;26;20696;-53
2024/04/12 00:09:29;;;;;;;0.00;0.00;;;20.80;48.80;;;;;;5436683;26;20305;-53
2024/04/12 00:12:00;;;;;;;0.10;0.10;;;20.80;48.80;;;;;;5410452;26;20229;-50
2024/04/12 00:14:32;;;;;;;0.00;0.00;;;20.80;48.70;;;;;;5399045;26;20285;-47
2024/04/12 00:17:03;;;;;;;0.00;0.00;;;20.80;48.70;;;;;;5400512;26;20333;-49
2024/04/12 00:19:35;;;;;;;0.00;0.00;;;20.90;48.70;;;;;;5398843;26;20213;-50
2024/04/12 00:22:05;;;;;;;0.10;0.10;;;20.90;48.70;;;;;;5399693;26;20272;-51
2024/04/12 00:24:40;;;;;;;0.00;0.00;;;20.90;48.60;;;;;;5399465;26;20233;-47
2024/04/12 00:27:09;;;;;;;0.10;0.10;;;20.90;48.60;;;;;;5435910;26;20284;-51
2024/04/12 00:29:42;;;;;;;0.10;0.10;;;20.90;48.60;;;;;;5434791;26;20262;-49
2024/04/12 00:32:15;;;;;;;0.10;0.10;;;20.90;48.60;;;;;;5436005;26;20562;-49
2024/04/12 00:34:51;;;;;;;0.03;0.03;;;20.90;48.60;;;;;;5429722;26;20240;-50
2024/04/12 00:37:21;;;;;;;0.10;0.10;;;20.90;48.60;;;;;;5430471;26;20590;-48
2024/04/12 00:39:59;;;;;;;0.05;0.05;;;20.90;48.60;;;;;;5398452;26;20326;-50
2024/04/12 00:42:31;;;;;;;0.10;0.10;;;20.90;48.60;;;;;;5399520;26;20296;-51
2024/04/12 00:45:03;;;;;;;0.10;0.10;;;20.90;48.60;;;;;;5400388;26;20221;-51
2024/04/12 00:47:33;;;;;;;0.00;0.00;;;20.90;48.60;;;;;;5398588;26;20595;-47
2024/04/12 00:50:06;;;;;;;0.00;0.00;;;20.90;48.60;;;;;;5398602;26;20221;-52
2024/04/12 00:52:37;;;;;;;0.00;0.00;;;20.90;48.60;;;;;;5399703;26;20230;-53
2024/04/12 00:55:13;;;;;;;0.00;0.00;;;20.90;48.60;;;;;;5399158;26;20217;-50
2024/04/12 00:57:43;;;;;;;0.00;0.00;;;20.90;48.60;;;;;;5403984;26;20225;-48
2024/04/12 01:00:19;;;;;;;0.00;0.00;;;20.90;48.60;;;;;;5398846;26;20321;-47
2024/04/12 01:02:48;;;;;;;0.00;0.00;;;20.90;48.50;;;;;;5413610;26;20266;-49
2024/04/12 01:05:21;;;;;;;0.03;0.03;;;20.90;49.10;;;;;;5418014;26;20780;-52
2024/04/12 01:07:55;;;;;;;0.10;0.10;;;20.90;48.40;;;;;;5402828;26;20381;-51
2024/04/12 01:10:36;;;;;;;0.00;0.00;;;20.90;48.40;;;;;;5404254;26;20260;-50
2024/04/12 01:13:05;;;;;;;0.10;0.10;;;20.90;48.40;;;;;;5402669;26;20229;-54
2024/04/12 01:15:40;;;;;;;0.10;0.10;;;20.90;48.30;;;;;;5403020;26;20638;-50
2024/04/12 01:18:13;;;;;;;0.00;0.00;;;20.90;48.30;;;;;;5402692;26;20205;-50
2024/04/12 01:20:46;;;;;;;0.10;0.10;;;20.90;48.40;;;;;;5402580;26;20264;-48
2024/04/12 01:23:16;;;;;;;0.00;0.00;;;21.00;48.50;;;;;;5402499;26;20233;-46
2024/04/12 01:25:54;;;;;;;0.00;0.00;;;20.90;48.40;;;;;;5415087;26;20225;-47
2024/04/12 01:28:23;;;;;;;0.00;0.00;;;20.90;49.00;;;;;;5401830;26;20639;-48
2024/04/12 01:30:59;;;;;;;0.00;0.00;;;20.90;48.40;;;;;;5401391;26;20269;-50
2024/04/12 01:33:31;;;;;;;0.13;0.13;;;20.90;48.40;;;;;;5402587;26;20247;-46
2024/04/12 01:36:05;;;;;;;0.00;0.00;;;21.00;48.50;;;;;;5403742;26;20276;-50
2024/04/12 01:38:37;;;;;;;0.00;0.00;;;21.00;48.40;;;;;;5405759;26;20221;-53
2024/04/12 01:41:14;;;;;;;0.10;0.10;;;21.00;48.40;;;;;;5402819;26;20272;-48
2024/04/12 01:43:45;;;;;;;0.00;0.00;;;21.00;48.40;;;;;;5402215;26;20229;-50
2024/04/12 01:46:17;;;;;;;0.10;0.10;;;21.00;48.40;;;;;;5402272;26;20226;-54
2024/04/12 01:48:47;;;;;;;0.00;0.00;;;21.00;48.40;;;;;;5427193;26;20240;-50
2024/04/12 01:51:22;;;;;;;0.00;0.00;;;21.10;48.40;;;;;;5436488;26;20779;-48
2024/04/12 01:53:54;;;;;;;0.00;0.00;;;21.00;48.40;;;;;;5438166;26;20274;-51
2024/04/12 01:56:31;;;;;;;0.10;0.10;;;21.00;48.40;;;;;;5437408;26;20220;-47
2024/04/12 01:59:01;;;;;;;0.00;0.00;;;21.00;48.40;;;;;;5437763;26;20212;-48
2024/04/12 02:01:34;;;;;;;0.10;0.10;;;21.00;48.40;;;;;;5401246;26;20217;-48
2024/04/12 02:04:03;;;;;;;0.08;0.08;;;21.10;48.40;;;;;;5402498;26;20248;-47
2024/04/12 02:06:42;;;;;;;0.00;0.00;;;21.10;48.50;;;;;;5401584;26;20221;-49
2024/04/12 02:09:14;;;;;;;0.10;0.10;;;21.10;48.40;;;;;;5402091;26;20222;-50
2024/04/12 02:11:53;;;;;;;0.10;0.10;;;21.10;48.50;;;;;;5400833;26;20226;-53
2024/04/12 02:14:22;;;;;;;0.10;0.10;;;21.10;48.70;;;;;;5431665;26;20228;-50
2024/04/12 02:16:55;;;;;;;0.00;0.00;;;21.10;48.70;;;;;;5437515;26;20665;-50
2024/04/12 02:19:25;;;;;;;0.03;0.03;;;21.10;48.70;;;;;;5436237;26;20205;-51
2024/04/12 02:21:57;;;;;;;0.00;0.00;;;21.20;48.70;;;;;;5438247;26;20258;-51
2024/04/12 02:24:26;;;;;;;0.10;0.10;;;21.20;48.60;;;;;;5431547;26;20275;-48
2024/04/12 02:27:01;;;;;;;0.00;0.00;;;21.20;48.60;;;;;;5432707;26;20320;-48
2024/04/12 02:29:32;;;;;;;0.10;0.10;;;21.20;48.50;;;;;;5437942;26;20263;-49
2024/04/12 02:32:06;;;;;;;0.10;0.10;;;21.20;48.50;;;;;;5436464;26;20297;-48
2024/04/12 02:34:35;;;;;;;0.10;0.10;;;21.20;48.40;;;;;;5438202;26;20267;-48
2024/04/12 02:37:08;;;;;;;0.00;0.00;;;21.20;48.40;;;;;;5437058;26;20232;-51
2024/04/12 02:39:40;;;;;;;0.00;0.00;;;21.20;48.30;;;;;;5416336;26;20313;-48
2024/04/12 02:42:19;;;;;;;0.10;0.10;;;21.20;48.30;;;;;;5400286;26;20233;-47
2024/04/12 02:44:48;;;;;;;0.00;0.00;;;21.20;48.20;;;;;;5401872;26;20217;-49
2024/04/12 02:47:21;;;;;;;0.00;0.00;;;21.20;48.20;;;;;;5400366;26;20314;-51
2024/04/12 02:49:52;;;;;;;0.00;0.00;;;21.20;48.20;;;;;;5408302;26;20225;-46
2024/04/12 02:52:24;;;;;;;0.08;0.08;;;21.30;48.10;;;;;;5415994;26;20283;-48
2024/04/12 02:54:54;;;;;;;0.10;0.10;;;21.30;48.10;;;;;;5400517;26;20261;-50
2024/04/12 02:57:30;;;;;;;0.00;0.00;;;21.20;48.00;;;;;;5401078;26;20272;-50
2024/04/12 03:00:00;;;;;;;0.00;0.00;;;21.30;48.70;;;;;;5400623;26;20256;-50
2024/04/12 03:02:32;;;;;;;0.10;0.10;;;21.20;48.00;;;;;;5410480;26;20216;-48
2024/04/12 03:05:02;;;;;;;0.00;0.00;;;21.20;48.60;;;;;;5437478;26;20331;-51
2024/04/12 03:07:34;;;;;;;0.00;0.00;;;21.30;48.00;;;;;;5404541;26;20285;-48
2024/04/12 03:10:06;;;;;;;0.00;0.00;;;21.20;47.90;;;;;;5400602;26;20312;-50
2024/04/12 03:12:43;;;;;;;0.00;0.00;;;21.20;47.90;;;;;;5402291;26;20338;-47
2024/04/12 03:15:14;;;;;;;0.00;0.00;;;21.20;47.90;;;;;;5401189;26;20252;-48
2024/04/12 03:17:50;;;;;;;0.03;0.03;;;21.20;47.90;;;;;;5405370;26;20330;-51
2024/04/12 03:20:19;;;;;;;0.00;0.00;;;21.20;47.80;;;;;;5399767;26;20691;-47
2024/04/12 03:22:52;;;;;;;0.00;0.00;;;21.20;47.80;;;;;;5400278;26;20334;-52
2024/04/12 03:25:22;;;;;;;0.00;0.00;;;21.20;47.70;;;;;;5409796;26;20275;-49
2024/04/12 03:27:57;;;;;;;0.00;0.00;;;21.20;47.70;;;;;;5436116;26;20299;-49
2024/04/12 03:30:26;;;;;;;0.10;0.10;;;21.20;47.70;;;;;;5427167;26;20241;-49
2024/04/12 03:33:02;;;;;;;0.00;0.00;;;21.20;47.70;;;;;;5413388;26;20238;-50
2024/04/12 03:35:36;;;;;;;0.10;0.10;;;21.20;47.70;;;;;;5400730;26;20271;-49
2024/04/12 03:41:03;;;;;;;0.00;0.00;;;21.20;47.60;;;;;;5419375;26;20333;-46
2024/04/12 03:43:35;;;;;;;0.05;0.05;;;21.20;47.60;;;;;;5410095;26;20234;-48
2024/04/12 03:46:11;;;;;;;0.00;0.00;;;21.20;47.60;;;;;;5425793;26;20624;-47
2024/04/12 03:48:40;;;;;;;0.10;0.10;;;21.20;47.60;;;;;;5437158;26;20671;-48
2024/04/12 03:51:12;;;;;;;0.00;0.00;;;21.20;47.60;;;;;;5416256;26;20638;-50
2024/04/12 03:53:41;;;;;;;0.00;0.00;;;21.20;47.50;;;;;;5400959;26;20377;-49
2024/04/12 03:56:14;;;;;;;0.00;0.00;;;21.20;47.40;;;;;;5399939;26;20625;-50
2024/04/12 03:58:46;;;;;;;0.00;0.00;;;21.20;47.40;;;;;;5400492;26;20217;-48
2024/04/12 04:01:19;;;;;;;0.00;0.00;;;21.20;47.40;;;;;;5400406;26;20281;-47
2024/04/12 04:03:57;;;;;;;0.00;0.00;;;21.20;47.30;;;;;;5400314;26;20225;-49
2024/04/12 04:06:35;;;;;;;0.10;0.10;;;21.20;47.40;;;;;;5399462;26;20615;-49
2024/04/12 04:09:11;;;;;;;0.10;0.10;;;21.10;47.30;;;;;;5400060;26;20221;-47
2024/04/12 04:11:42;;;;;;;0.00;0.00;;;21.10;47.30;;;;;;5400636;26;20260;-47
2024/04/12 04:14:19;;;;;;;0.00;0.00;;;21.10;47.30;;;;;;5399704;26;20740;-48
2024/04/12 04:16:50;;;;;;;0.00;0.00;;;21.10;47.30;;;;;;5400340;26;20260;-48
2024/04/12 04:19:30;;;;;;;0.10;0.10;;;21.10;47.30;;;;;;5401761;26;20265;-47
2024/04/12 04:22:04;;;;;;;0.10;0.10;;;21.10;47.30;;;;;;5437177;26;20255;-47
2024/04/12 04:24:38;;;;;;;0.00;0.00;;;21.10;47.20;;;;;;5435653;26;20266;-47
2024/04/12 04:27:08;;;;;;;0.00;0.00;;;21.10;47.20;;;;;;5434513;26;20314;-46
2024/04/12 04:29:44;;;;;;;0.00;0.00;;;21.10;47.20;;;;;;5434613;26;20662;-47
2024/04/12 04:32:13;;;;;;;0.10;0.10;;;21.10;47.20;;;;;;5436217;26;20571;-52
2024/04/12 04:34:47;;;;;;;0.00;0.00;;;21.10;47.20;;;;;;5434541;26;20696;-48
2024/04/12 04:37:19;;;;;;;0.10;0.10;;;21.10;47.20;;;;;;5435592;26;20216;-46
2024/04/12 04:39:52;;;;;;;0.00;0.00;;;21.10;47.20;;;;;;5404027;26;20296;-47
2024/04/12 04:42:23;;;;;;;0.05;0.05;;;21.10;47.20;;;;;;5399539;26;20584;-48
2024/04/12 04:44:59;;;;;;;0.10;0.10;;;21.10;47.20;;;;;;5399837;26;20339;-47
2024/04/12 04:47:30;;;;;;;0.00;0.00;;;21.10;47.20;;;;;;5430473;26;20220;-48
2024/04/12 04:50:04;;;;;;;0.10;0.10;;;21.00;47.20;;;;;;5426702;26;20221;-48
2024/04/12 04:52:39;;;;;;;0.00;0.00;;;21.00;47.30;;;;;;5397943;26;20335;-49
2024/04/12 04:55:12;;;;;;;0.00;0.00;;;21.00;47.20;;;;;;5399769;26;20252;-51
2024/04/12 04:57:43;;;;;;;0.03;0.03;;;21.00;47.30;;;;;;5402520;26;20564;-48
2024/04/12 05:00:22;;;;;;;0.10;0.10;;;21.00;47.30;;;;;;5398626;26;20260;-47
2024/04/12 05:02:53;;;;;;;0.00;0.00;;;21.00;47.30;;;;;;5398779;26;20280;-49
2024/04/12 05:05:27;;;;;;;0.20;0.20;;;21.00;47.30;;;;;;5398009;26;20237;-49
2024/04/12 05:07:57;;;;;;;0.00;0.00;;;21.00;47.30;;;;;;5399978;26;20248;-48
2024/04/12 05:10:33;;;;;;;0.00;0.00;;;21.00;47.30;;;;;;5399634;26;20685;-46
2024/04/12 05:13:03;;;;;;;0.00;0.00;;;21.00;47.30;;;;;;5435493;26;20811;-49
2024/04/12 05:15:54;;;;;;;0.00;0.00;;;21.00;47.20;;;;;;5434529;26;20252;-49
2024/04/12 05:18:23;;;;;;;0.00;0.00;;;21.00;47.40;;;;;;5429213;26;20264;-49
2024/04/12 05:20:57;;;;;;;0.10;0.10;;;21.00;47.30;;;;;;5413008;26;20809;-48
2024/04/12 05:23:28;;;;;;;0.00;0.00;;;20.90;47.30;;;;;;5457154;21;20295;-49
2024/04/12 05:26:01;;;;;;;0.10;0.10;;;20.90;47.30;;;;;;5417811;26;20226;-55
2024/04/12 05:28:33;;;;;;;0.00;0.00;;;20.90;47.30;;;;;;5427759;26;20213;-55
2024/04/12 05:31:11;;;;;;;0.00;0.00;;;20.90;47.40;;;;;;5433343;26;20233;-55
2024/04/12 05:33:45;;;;;;;0.00;0.00;;;21.00;47.40;;;;;;5445203;26;20342;-54
2024/04/12 05:36:16;;;;;;;0.10;0.10;;;20.90;47.40;;;;;;5399675;26;20234;-55
2024/04/12 05:38:49;;;;;;;0.10;0.10;;;21.00;47.50;;;;;;5398758;26;20222;-54
2024/04/12 05:41:19;;;;;;;0.00;0.00;;;21.00;47.40;;;;;;5397619;26;20269;-55
2024/04/12 05:43:52;;;;;;;0.00;0.00;;;20.90;47.40;;;;;;5397386;26;20721;-54
2024/04/12 05:46:24;;;;;;;0.00;0.00;;;20.90;47.40;;;;;;5398317;26;20332;-57
2024/04/12 05:49:08;;;;;;;0.00;0.00;;;20.90;47.40;;;;;;5398101;26;20256;-54
2024/04/12 05:51:39;;;;;;;0.00;0.00;;;20.90;47.40;;;;;;5402012;26;20221;-55
2024/04/12 05:54:15;;;;;;;0.00;0.00;;;20.90;47.40;;;;;;5402573;26;20252;-53
2024/04/12 05:56:47;;;;;;;0.10;0.10;;;20.90;47.40;;;;;;5402136;26;20690;-54
2024/04/12 05:59:19;;;;;;;0.00;0.00;;;20.90;47.50;;;;;;5402350;26;20326;-55
2024/04/12 06:01:52;;;;;;;0.10;0.10;;;20.90;47.50;;;;;;5402124;26;20252;-54
2024/04/12 06:04:25;;;;;;;0.10;0.10;;;20.90;47.50;;;;;;5403151;26;20225;-55
2024/04/12 06:06:55;;;;;;;0.10;0.10;;;20.90;47.50;;;;;;5401923;26;20669;-57
2024/04/12 06:09:27;;;;;;;0.00;0.00;;;20.90;47.50;;;;;;5402915;26;20257;-56
2024/04/12 06:12:05;;;;;;;0.10;0.10;;;20.90;47.50;;;;;;5404760;26;20222;-57
2024/04/12 06:14:38;;;;;;;0.00;0.00;;;20.90;47.50;;;;;;5407256;26;20583;-56
2024/04/12 06:17:15;;;;;;;0.00;0.00;;;20.90;47.50;;;;;;5407060;26;20269;-53
2024/04/12 06:19:44;;;;;;;0.00;0.00;;;20.90;47.50;;;;;;5403786;26;20241;-53
2024/04/12 06:22:19;;;;;;;0.00;0.00;;;20.90;47.50;;;;;;5416816;21;21256;-50
2024/04/12 06:24:49;;;;;;;0.00;0.00;;;20.90;47.50;;;;;;5370869;26;20222;-47
2024/04/12 06:27:29;;;;;;;0.00;0.00;;;20.90;47.50;;;;;;5370454;26;20214;-48
2024/04/12 06:30:00;;;;;;;0.05;0.05;;;20.90;47.50;;;;;;5371233;26;20254;-49
2024/04/12 06:32:35;;;;;;;0.00;0.00;;;20.80;47.50;;;;;;5369841;26;20339;-49
2024/04/12 06:35:20;;;;;;;0.00;0.00;;;20.80;47.50;;;;;;5370684;26;20296;-48
2024/04/12 06:37:54;;;;;;;0.00;0.00;;;20.80;47.50;;;;;;5370628;26;20219;-50
2024/04/12 06:40:28;;;;;;;0.08;0.08;;;20.80;47.50;;;;;;5374087;26;20320;-47
2024/04/12 06:43:05;;;;;;;0.03;0.03;;;20.80;47.50;;;;;;5368196;26;20235;-47
2024/04/12 06:45:41;;;;;;;0.10;0.10;;;20.80;47.50;;;;;;5371027;26;20222;-50
2024/04/12 06:48:17;;;;;;;0.10;0.10;;;20.80;47.60;;;;;;5369474;26;20754;-47
2024/04/12 06:50:55;;;;;;;0.00;0.00;;;20.80;47.60;;;;;;5369793;26;20838;-47
2024/04/12 06:53:28;;;;;;;0.10;0.10;;;20.80;47.60;;;;;;5370885;26;20231;-47
2024/04/12 06:56:05;;;;;;;0.00;0.00;;;20.80;47.60;;;;;;5370486;26;20733;-47
2024/04/12 06:58:38;;;;;;;0.00;0.00;;;20.80;47.60;;;;;;5370832;26;20241;-48
2024/04/12 07:01:07;;;;;;;0.10;0.10;;;20.80;47.60;;;;;;5370447;26;20227;-48
2024/04/12 07:03:45;;;;;;;0.10;0.10;;;20.80;47.60;;;;;;5370927;26;20601;-47
2024/04/12 07:06:16;;;;;;;0.05;0.05;;;20.80;47.60;;;;;;5369463;26;20234;-47
2024/04/12 07:08:49;;;;;;;0.10;0.10;;;20.80;47.60;;;;;;5370059;26;20824;-46
2024/04/12 07:11:19;;;;;;;0.10;0.10;;;20.80;47.60;;;;;;5370775;26;20269;-46
2024/04/12 07:13:53;;;;;;;0.10;0.10;;;20.80;47.60;;;;;;5370938;26;20246;-46
2024/04/12 07:16:23;;;;;;;0.10;0.10;;;20.80;47.60;;;;;;5370833;26;20261;-45
2024/04/12 07:19:00;;;;;;;0.10;0.10;;;20.80;47.70;;;;;;5370803;26;20291;-47
2024/04/12 07:21:29;;;;;;;0.10;0.10;;;20.80;47.70;;;;;;5370513;26;20655;-47
2024/04/12 07:24:02;;;;;;;0.00;0.00;;;20.80;47.70;;;;;;5371130;26;20354;-47
2024/04/12 07:26:31;;;;;;;0.10;0.10;;;20.70;47.60;;;;;;5375536;26;20283;-46
2024/04/12 07:29:06;;;;;;;0.00;0.00;;;20.70;47.60;;;;;;5335796;26;20239;-47
2024/04/12 07:31:36;;;;;;;0.10;0.10;;;20.70;47.60;;;;;;5349471;26;20230;-48
2024/04/12 07:34:12;;;;;;;0.00;0.00;;;20.70;47.60;;;;;;5370557;26;20315;-47
2024/04/12 07:36:41;;;;;;;0.03;0.03;;;20.70;47.70;;;;;;5370232;26;20329;-47
2024/04/12 07:39:15;;;;;;;0.10;0.10;;;20.70;47.70;;;;;;5370864;26;20226;-46
2024/04/12 07:41:48;;;;;;;0.00;0.00;;;20.70;47.70;;;;;;5370820;26;20226;-47
2024/04/12 07:44:24;;;;;;;0.00;0.00;;;20.70;47.70;;;;;;5370702;26;20608;-48
2024/04/12 07:46:58;;;;;;;0.10;0.10;;;20.70;47.70;;;;;;5369700;26;20360;-46
2024/04/12 07:49:45;;;;;;;0.10;0.10;;;20.70;47.70;;;;;;5369383;26;20233;-47
2024/04/12 07:52:17;;;;;;;0.10;0.10;;;20.70;47.70;;;;;;5369110;26;20792;-47
2024/04/12 07:54:53;;;;;;;0.08;0.08;;;20.70;47.70;;;;;;5369581;26;20332;-49
2024/04/12 07:57:25;;;;;;;0.10;0.10;;;20.70;48.40;;;;;;5369780;26;20218;-48
2024/04/12 07:59:57;;;;;;;0.08;0.08;;;20.70;47.70;;;;;;5370080;26;20214;-51
2024/04/12 08:02:26;;;;;;;0.10;0.10;;;20.70;47.80;;;;;;5369743;26;20235;-48
2024/04/12 08:05:14;;;;;;;0.00;0.00;;;20.60;47.70;;;;;;5369813;26;20288;-49
2024/04/12 08:07:44;;;;;;;0.00;0.00;;;20.60;47.70;;;;;;5369128;26;20695;-47
2024/04/12 08:10:29;;;;;;;0.10;0.10;;;20.60;47.70;;;;;;5369405;26;20226;-48
2024/04/12 08:12:58;;;;;;;0.10;0.10;;;20.60;47.70;;;;;;5368434;26;20269;-49
2024/04/12 08:15:33;;;;;;;0.00;0.00;;;20.60;47.70;;;;;;5369729;26;20226;-47
2024/04/12 08:18:03;;;;;;;0.10;0.10;;;20.60;47.70;;;;;;5370446;26;20246;-48
2024/04/12 08:20:46;;;;;;;0.10;0.10;;;20.60;47.70;;;;;;5369520;26;20268;-48
2024/04/12 08:23:17;;;;;;;0.10;0.10;;;20.60;47.70;;;;;;5369378;26;20281;-48
2024/04/12 08:25:50;;;;;;;0.10;0.10;;;20.60;47.70;;;;;;5368601;26;20219;-48
2024/04/12 08:28:19;;;;;;;0.03;0.03;;;20.60;47.80;;;;;;5368963;26;20333;-47
2024/04/12 08:31:05;;;;;;;0.03;0.03;;;20.60;47.80;;;;;;5368735;26;20268;-48
2024/04/12 08:33:34;;;;;;;0.00;0.00;;;20.60;47.80;;;;;;5368686;26;20273;-46
2024/04/12 08:36:14;;;;;;;0.10;0.10;;;20.50;47.70;;;;;;5368924;26;20219;-46
2024/04/12 08:38:54;;;;;;;0.10;0.10;;;20.50;47.80;;;;;;5368059;26;20774;-47
2024/04/12 08:41:31;;;;;;;0.10;0.10;;;20.50;47.70;;;;;;5369567;26;20226;-47
2024/04/12 08:44:09;;;;;;;0.10;0.10;;;20.50;47.70;;;;;;5369471;26;20238;-47
2024/04/12 08:46:46;;;;;;;0.10;0.10;;;20.50;47.80;;;;;;5369057;26;20248;-47
2024/04/12 08:49:17;;;;;;;0.10;0.10;;;20.50;47.80;;;;;;5369069;26;20323;-46
2024/04/12 08:51:58;;;;;;;0.00;0.00;;;20.50;47.90;;;;;;5368881;26;20317;-46
2024/04/12 08:54:27;;;;;;;0.00;0.00;;;20.50;47.80;;;;;;5368943;26;20234;-47
2024/04/12 08:57:00;;;;;;;0.05;0.05;;;20.50;47.80;;;;;;5369391;26;20612;-48
2024/04/12 08:59:30;;;;;;;0.00;0.00;;;20.50;47.80;;;;;;5369360;26;20215;-47
2024/04/12 09:02:07;;;;;;;0.00;0.00;;;20.40;47.80;;;;;;5368529;26;20273;-46
2024/04/12 09:04:39;;;;;;;0.10;0.10;;;20.40;47.80;;;;;;5368848;26;20260;-48
2024/04/12 09:07:17;;;;;;;0.00;0.00;;;20.40;47.80;;;;;;5369208;26;20222;-47
2024/04/12 09:09:53;;;;;;;0.00;0.00;;;20.40;47.80;;;;;;5368703;26;20336;-49
2024/04/12 09:12:27;;;;;;;0.10;0.10;;;20.40;47.80;;;;;;5368643;26;20569;-47
2024/04/12 09:14:59;;;;;;;0.10;0.10;;;20.40;47.80;;;;;;5368431;26;20568;-47
2024/04/12 09:17:34;;;;;;;0.00;0.00;;;20.40;47.80;;;;;;5368562;26;20214;-47
2024/04/12 09:20:04;;;;;;;0.00;0.00;;;20.40;47.80;;;;;;5368419;26;20233;-48
2024/04/12 09:22:43;;;;;;;0.00;0.00;;;20.40;47.80;;;;;;5368963;26;20239;-47
2024/04/12 09:25:25;;;;;;;0.05;0.05;;;20.40;47.80;;;;;;5371025;26;20234;-48
2024/04/12 09:27:59;;;;;;;0.10;0.10;;;20.40;47.80;;;;;;5372522;26;20296;-48
2024/04/12 09:33:20;;;;;;;0.00;0.00;;;20.40;47.80;;;;;;5399164;26;20617;-48
2024/04/12 09:35:56;;;;;;;0.00;0.00;;;20.40;47.80;;;;;;5410386;26;20273;-47
2024/04/12 09:38:28;;;;;;;0.00;0.00;;;20.30;47.80;;;;;;5336377;26;20219;-49
2024/04/12 09:41:27;;;;;;;0.10;0.10;;;20.30;47.80;;;;;;5358638;26;20673;-48
2024/04/12 09:43:59;;;;;;;0.05;0.05;;;20.30;47.80;;;;;;5371926;26;20769;-48
2024/04/12 09:46:46;;;;;;;0.10;0.10;;;20.30;47.70;;;;;;5371649;26;20222;-47
2024/04/12 10:37:28;;;;;;;0.00;0.00;;;20.20;48.30;;;;;;5368826;26;20273;-51
2024/04/12 10:40:04;;;;;;;0.00;0.00;;;20.20;48.30;;;;;;5365861;26;20222;-48
2024/04/12 10:42:37;;;;;;;0.03;0.03;;;20.20;48.30;;;;;;5365956;26;20285;-49
2024/04/12 10:45:15;;;;;;;0.08;0.08;;;20.20;48.30;;;;;;5367023;26;20223;-46
2024/04/12 10:47:48;;;;;;;0.10;0.10;;;20.20;48.40;;;;;;5365336;26;20597;-48
2024/04/12 10:50:19;;;;;;;0.10;0.10;;;20.20;48.30;;;;;;5366689;26;20223;-49
2024/04/12 10:52:51;;;;;;;0.10;0.10;;;20.20;48.30;;;;;;5365931;26;20227;-48
2024/04/12 10:55:20;;;;;;;0.00;0.00;;;20.20;48.30;;;;;;5365906;26;20238;-49
2024/04/12 10:57:56;;;;;;;0.00;0.00;;;20.20;48.30;;;;;;5365566;26;20226;-48
2024/04/12 11:00:29;;;;;;;0.00;0.00;;;20.20;48.30;;;;;;5441571;26;20338;-47
2024/04/12 11:03:14;;;;;;;0.00;0.00;;;20.20;48.30;;;;;;5411136;26;20235;-47
2024/04/12 11:05:49;;;;;;;0.00;0.00;;;20.20;48.30;;;;;;5366555;26;20223;-48
2024/04/12 11:08:23;;;;;;;0.10;0.10;;;20.20;48.30;;;;;;5365410;26;20472;-47
2024/04/12 11:11:15;;;;;;;0.00;0.00;;;20.20;48.30;;;;;;5365549;26;20230;-46
2024/04/12 11:13:52;;;;;;;0.00;0.00;;;20.10;48.20;;;;;;5364084;26;20268;-48
2024/04/12 11:33:19;;;;;;;0.10;0.10;;;20.10;48.30;;;;;;5368062;26;20615;-50
2024/04/12 11:35:54;;;;;;;0.00;0.00;;;20.10;48.30;;;;;;5365325;26;20625;-49
2024/04/12 11:38:27;;;;;;;0.00;0.00;;;20.10;48.30;;;;;;5375134;26;20634;-48
2024/04/12 11:40:57;;;;;;;0.00;0.00;;;20.10;48.40;;;;;;5362024;26;20231;-48
2024/04/12 11:43:29;;;;;;;0.10;0.10;;;20.10;48.30;;;;;;5365010;26;20234;-48
2024/04/12 11:45:58;;;;;;;0.00;0.00;;;20.10;48.30;;;;;;5365634;26;20256;-48
2024/04/12 11:48:34;;;;;;;0.00;0.00;;;20.10;48.30;;;;;;5363917;26;20282;-48
2024/04/12 11:51:08;;;;;;;0.10;0.10;;;20.10;48.30;;;;;;5364689;26;20354;-47
2024/04/12 11:53:42;;;;;;;0.10;0.10;;;20.10;48.30;;;;;;5364303;26;20343;-46
2024/04/12 11:56:11;;;;;;;0.10;0.10;;;20.10;48.30;;;;;;5367561;26;20218;-49
2024/04/12 11:58:44;;;;;;;0.03;0.03;;;20.00;48.30;;;;;;5370090;26;20227;-47
2024/04/12 12:01:13;;;;;;;0.08;0.08;;;20.10;48.40;;;;;;5370215;26;20282;-45
2024/04/12 12:03:49;;;;;;;0.00;0.00;;;20.10;48.50;;;;;;5369413;26;20625;-46
2024/04/12 12:06:22;;;;;;;0.10;0.10;;;20.00;48.50;;;;;;5369674;26;20276;-46
2024/04/12 12:08:57;;;;;;;0.00;0.00;;;20.00;48.50;;;;;;5369385;26;20226;-45
2024/04/12 12:11:27;;;;;;;0.10;0.10;;;20.00;49.10;;;;;;5369018;26;20222;-46
2024/04/12 12:14:00;;;;;;;0.10;0.10;;;20.00;48.50;;;;;;5365146;26;20278;-47
2024/04/12 12:16:32;;;;;;;0.00;0.00;;;20.00;48.50;;;;;;5368875;26;20855;-49
2024/04/12 12:19:09;;;;;;;0.00;0.00;;;20.00;48.50;;;;;;5369162;26;20343;-45
2024/04/12 12:21:38;;;;;;;0.08;0.08;;;20.00;48.50;;;;;;5364925;26;20227;-47
2024/04/12 12:24:11;;;;;;;0.10;0.10;;;20.00;48.50;;;;;;5368836;26;20247;-47
2024/04/12 12:26:40;;;;;;;0.10;0.10;;;20.00;48.50;;;;;;5365584;26;20277;-47
2024/04/12 12:29:15;;;;;;;0.10;0.10;;;20.00;48.50;;;;;;5369173;26;20238;-46
2024/04/12 12:31:45;;;;;;;0.10;0.10;;;20.00;48.50;;;;;;5368944;26;20329;-48
2024/04/12 12:34:22;;;;;;;0.10;0.10;;;20.00;48.40;;;;;;5367424;26;20299;-46
2024/04/12 12:36:51;;;;;;;0.05;0.05;;;20.00;48.40;;;;;;5369078;26;20230;-46
2024/04/12 12:39:23;;;;;;;0.10;0.10;;;20.00;48.40;;;;;;5368418;26;20230;-47
2024/04/12 12:41:52;;;;;;;0.10;0.10;;;19.90;48.40;;;;;;5367731;26;20751;-45
2024/04/12 12:44:28;;;;;;;0.10;0.10;;;19.90;48.40;;;;;;5368030;26;20289;-47
2024/04/12 12:46:59;;;;;;;0.00;0.00;;;19.90;48.40;;;;;;5374342;26;20327;-47
2024/04/12 12:49:40;;;;;;;0.10;0.10;;;19.90;48.40;;;;;;5369141;26;20699;-47
2024/04/12 12:52:11;;;;;;;0.10;0.10;;;19.90;48.40;;;;;;5367933;26;20226;-47
2024/04/12 12:54:44;;;;;;;0.10;0.10;;;19.90;48.40;;;;;;5368532;26;20307;-48
2024/04/12 12:57:14;;;;;;;0.00;0.00;;;19.90;48.40;;;;;;5369364;26;20277;-48
2024/04/12 12:59:47;;;;;;;0.10;0.10;;;19.80;48.30;;;;;;5371531;26;20260;-49
2024/04/12 13:02:16;;;;;;;0.10;0.10;;;19.90;48.40;;;;;;5372525;26;20224;-47
2024/04/12 13:04:52;;;;;;;0.10;0.10;;;19.90;48.40;;;;;;5372296;26;20339;-48
2024/04/12 13:07:22;;;;;;;0.10;0.10;;;19.80;48.40;;;;;;5372509;26;20214;-50
2024/04/12 13:09:57;;;;;;;0.10;0.10;;;19.80;48.40;;;;;;5372558;26;20652;-48
2024/04/12 13:12:28;;;;;;;0.10;0.10;;;19.80;48.40;;;;;;5371773;26;20568;-48
2024/04/12 13:15:01;;;;;;;0.00;0.00;;;19.80;48.30;;;;;;5372209;26;20749;-46
2024/04/12 13:17:36;;;;;;;0.00;0.00;;;19.80;48.40;;;;;;5372027;26;20222;-46
2024/04/12 13:20:19;;;;;;;0.00;0.00;;;19.80;48.30;;;;;;5372170;26;20693;-47
2024/04/12 13:22:48;;;;;;;0.10;0.10;;;19.80;48.30;;;;;;5372716;26;20336;-47
2024/04/12 13:25:20;;;;;;;0.10;0.10;;;19.80;48.30;;;;;;5372129;26;20238;-47
2024/04/12 13:27:51;;;;;;;0.00;0.00;;;19.80;48.30;;;;;;5376806;26;20328;-47
2024/04/12 13:30:24;;;;;;;0.10;0.10;;;19.80;48.30;;;;;;5450291;26;20240;-47
2024/04/12 13:32:58;;;;;;;0.08;0.08;;;19.80;48.30;;;;;;5420073;26;20765;-47
2024/04/12 13:35:33;;;;;;;0.00;0.00;;;19.70;48.30;;;;;;5371793;26;20218;-48
2024/04/12 13:38:03;;;;;;;0.10;0.10;;;19.70;48.30;;;;;;5336923;26;20223;-50
2024/04/12 13:40:35;;;;;;;0.10;0.10;;;19.70;48.30;;;;;;5337357;26;20235;-46
2024/04/12 13:43:05;;;;;;;0.00;0.00;;;19.70;48.30;;;;;;5337617;26;20243;-47
2024/04/12 13:51:15;;;;;;;0.10;0.10;;;19.70;48.30;;;;;;5374216;26;20331;-46
2024/04/12 13:53:50;;;;;;;0.05;0.05;;;19.70;48.30;;;;;;5371670;26;20338;-46
2024/04/12 13:56:26;;;;;;;0.10;0.10;;;19.70;48.30;;;;;;5371929;26;20257;-46
2024/04/12 13:58:59;;;;;;;0.08;0.08;;;19.70;48.30;;;;;;5371919;26;20319;-46
2024/04/12 14:01:29;;;;;;;0.10;0.10;;;19.70;48.30;;;;;;5371554;26;20262;-47
2024/04/12 14:04:04;;;;;;;0.00;0.00;;;19.70;48.30;;;;;;5371774;26;20576;-45
2024/04/12 14:06:37;;;;;;;0.05;0.05;;;19.60;48.20;;;;;;5371180;26;20710;-45
2024/04/12 14:09:13;;;;;;;0.10;0.10;;;19.60;48.20;;;;;;5371292;26;20223;-45
2024/04/12 14:11:42;;;;;;;0.10;0.10;;;19.60;48.20;;;;;;5369915;26;20277;-47
2024/04/12 14:14:14;;;;;;;0.10;0.10;;;19.60;48.30;;;;;;5371090;26;20300;-46
2024/04/12 14:16:44;;;;;;;0.00;0.00;;;19.60;48.30;;;;;;5371671;26;20227;-47
2024/04/12 14:19:21;;;;;;;0.10;0.10;;;19.60;48.30;;;;;;5371504;26;20223;-46
2024/04/12 14:21:54;;;;;;;0.10;0.10;;;19.60;48.20;;;;;;5371300;26;20257;-49
2024/04/12 14:27:14;;;;;;;0.00;0.00;;;19.50;48.20;;;;;;5373451;26;20273;-46
2024/04/12 14:29:43;;;;;;;0.00;0.00;;;19.60;48.20;;;;;;5370598;26;20231;-46
2024/04/12 14:32:16;;;;;;;0.00;0.00;;;19.50;48.20;;;;;;5371743;26;20256;-51
2024/04/12 14:34:49;;;;;;;0.00;0.00;;;19.50;48.20;;;;;;5371461;26;20798;-47
2024/04/12 14:37:25;;;;;;;0.00;0.00;;;19.50;48.30;;;;;;5371258;26;20320;-48
2024/04/12 14:39:54;;;;;;;0.10;0.10;;;19.50;48.20;;;;;;5371055;26;20238;-47